sensor_id;sensor_type;location;lat;lon;timestamp;pressure;altitude;pressure_sealevel;temperature;humidity
52137;BME280;69622;49.570;10.986;2024-01-15T00:02:57;97121.53;;;-4.13;100.00
52137;BME280;69622;49.570;10.986;2024-01-15T00:05:58;97127.44;;;-4.12;100.00
52137;BME280;69622;49.570;10.986;2024-01-15T00:09:00;97144.84;;;-4.25;100.00
52137;BME280;69622;49.570;10.986;2024-01-15T00:12:02;97124.03;;;-4.35;100.00
52137;BME280;69622;49.570;10.986;2024-01-15T00:15:04;97124.78;;;-4.33;100.00
52137;BME280;69622;49.570;10.986;2024-01-15T00:18:06;97117.78;;;-4.26;100.00
52137;BME280;69622;49.570;10.986;2024-01-15T00:21:08;97123.97;;;-4.33;100.00
52137;BME280;69622;49.570;10.986;2024-01-15T00:24:10;97123.72;;;-4.26;100.00
52137;BME280;69622;49.570;10.986;2024-01-15T00:27:11;97120.38;;;-4.04;100.00
52137;BME280;69622;49.570;10.986;2024-01-15T00:30:13;97100.63;;;-4.19;100.00
52137;BME280;69622;49.570;10.986;2024-01-15T00:33:15;97105.59;;;-4.16;100.00
52137;BME280;69622;49.570;10.986;2024-01-15T00:36:16;97098.47;;;-4.07;100.00
52137;BME280;69622;49.570;10.986;2024-01-15T00:39:18;97088.53;;;-4.13;100.00
52137;BME280;69622;49.570;10.986;2024-01-15T00:42:19;97085.28;;;-3.93;100.00
52137;BME280;69622;49.570;10.986;2024-01-15T00:45:21;97075.56;;;-4.05;100.00
52137;BME280;69622;49.570;10.986;2024-01-15T00:48:22;97068.66;;;-4.02;100.00
52137;BME280;69622;49.570;10.986;2024-01-15T00:51:24;97067.28;;;-4.10;100.00
52137;BME280;69622;49.570;10.986;2024-01-15T00:54:26;97063.81;;;-4.08;100.00
52137;BME280;69622;49.570;10.986;2024-01-15T00:57:28;97079.06;;;-3.86;100.00
52137;BME280;69622;49.570;10.986;2024-01-15T01:00:29;97081.22;;;-3.75;100.00
52137;BME280;69622;49.570;10.986;2024-01-15T01:03:31;97095.72;;;-3.79;100.00
52137;BME280;69622;49.570;10.986;2024-01-15T01:06:32;97098.22;;;-3.77;100.00
52137;BME280;69622;49.570;10.986;2024-01-15T01:09:34;97082.75;;;-3.71;100.00
52137;BME280;69622;49.570;10.986;2024-01-15T01:12:36;97082.94;;;-3.76;100.00
52137;BME280;69622;49.570;10.986;2024-01-15T01:15:37;97084.75;;;-3.57;100.00
52137;BME280;69622;49.570;10.986;2024-01-15T01:18:40;97081.59;;;-3.64;100.00
52137;BME280;69622;49.570;10.986;2024-01-15T01:21:41;97087.50;;;-3.64;100.00
52137;BME280;69622;49.570;10.986;2024-01-15T01:24:43;97081.22;;;-3.75;100.00
52137;BME280;69622;49.570;10.986;2024-01-15T01:27:44;97078.13;;;-3.83;100.00
52137;BME280;69622;49.570;10.986;2024-01-15T01:30:46;97079.94;;;-3.65;100.00
52137;BME280;69622;49.570;10.986;2024-01-15T01:33:47;97082.41;;;-3.62;100.00
52137;BME280;69622;49.570;10.986;2024-01-15T01:36:49;97075.00;;;-3.68;100.00
52137;BME280;69622;49.570;10.986;2024-01-15T01:39:51;97078.66;;;-3.75;100.00
52137;BME280;69622;49.570;10.986;2024-01-15T01:42:52;97075.31;;;-3.76;100.00
52137;BME280;69622;49.570;10.986;2024-01-15T01:45:56;97060.03;;;-3.54;100.00
52137;BME280;69622;49.570;10.986;2024-01-15T01:48:58;97063.59;;;-3.58;100.00
52137;BME280;69622;49.570;10.986;2024-01-15T01:52:05;97055.09;;;-3.57;100.00
52137;BME280;69622;49.570;10.986;2024-01-15T01:55:09;97048.75;;;-3.69;100.00
52137;BME280;69622;49.570;10.986;2024-01-15T01:58:11;97063.34;;;-3.52;100.00
52137;BME280;69622;49.570;10.986;2024-01-15T02:01:13;97063.28;;;-3.50;100.00
52137;BME280;69622;49.570;10.986;2024-01-15T02:04:15;97070.91;;;-3.50;100.00
52137;BME280;69622;49.570;10.986;2024-01-15T02:07:22;97067.44;;;-3.70;100.00
52137;BME280;69622;49.570;10.986;2024-01-15T02:10:24;97074.53;;;-3.56;100.00
52137;BME280;69622;49.570;10.986;2024-01-15T02:13:25;97069.91;;;-3.68;100.00
52137;BME280;69622;49.570;10.986;2024-01-15T02:16:26;97060.47;;;-3.65;100.00
52137;BME280;69622;49.570;10.986;2024-01-15T02:19:28;97074.34;;;-3.51;100.00
52137;BME280;69622;49.570;10.986;2024-01-15T02:22:29;97067.75;;;-3.35;100.00
52137;BME280;69622;49.570;10.986;2024-01-15T02:25:31;97067.88;;;-3.38;100.00
52137;BME280;69622;49.570;10.986;2024-01-15T02:28:33;97070.63;;;-3.43;100.00
52137;BME280;69622;49.570;10.986;2024-01-15T02:31:36;97062.34;;;-3.48;100.00
52137;BME280;69622;49.570;10.986;2024-01-15T02:34:38;97060.53;;;-3.44;100.00
52137;BME280;69622;49.570;10.986;2024-01-15T02:37:40;97056.97;;;-3.20;100.00
52137;BME280;69622;49.570;10.986;2024-01-15T02:40:43;97053.38;;;-3.14;100.00
52137;BME280;69622;49.570;10.986;2024-01-15T02:43:45;97065.06;;;-3.30;100.00
52137;BME280;69622;49.570;10.986;2024-01-15T02:46:46;97058.53;;;-3.38;100.00
52137;BME280;69622;49.570;10.986;2024-01-15T02:49:48;97066.66;;;-3.50;100.00
52137;BME280;69622;49.570;10.986;2024-01-15T02:52:49;97062.03;;;-3.40;100.00
52137;BME280;69622;49.570;10.986;2024-01-15T02:55:51;97063.47;;;-3.13;100.00
52137;BME280;69622;49.570;10.986;2024-01-15T02:58:52;97068.84;;;-3.20;100.00
52137;BME280;69622;49.570;10.986;2024-01-15T03:01:54;97070.66;;;-3.02;100.00
52137;BME280;69622;49.570;10.986;2024-01-15T03:04:55;97066.50;;;-3.25;100.00
52137;BME280;69622;49.570;10.986;2024-01-15T03:07:56;97065.81;;;-3.08;100.00
52137;BME280;69622;49.570;10.986;2024-01-15T03:10:58;97048.84;;;-3.28;100.00
52137;BME280;69622;49.570;10.986;2024-01-15T03:14:00;97048.84;;;-3.28;100.00
52137;BME280;69622;49.570;10.986;2024-01-15T03:17:01;97061.75;;;-3.12;100.00
52137;BME280;69622;49.570;10.986;2024-01-15T03:20:03;97053.94;;;-3.28;100.00
52137;BME280;69622;49.570;10.986;2024-01-15T03:23:05;97049.53;;;-3.24;100.00
52137;BME280;69622;49.570;10.986;2024-01-15T03:26:06;97044.59;;;-3.07;100.00
52137;BME280;69622;49.570;10.986;2024-01-15T03:29:08;97044.09;;;-3.15;100.00
52137;BME280;69622;49.570;10.986;2024-01-15T03:32:09;97045.22;;;-3.02;100.00
52137;BME280;69622;49.570;10.986;2024-01-15T03:35:11;97030.91;;;-3.05;100.00
52137;BME280;69622;49.570;10.986;2024-01-15T03:38:12;97030.22;;;-3.08;100.00
52137;BME280;69622;49.570;10.986;2024-01-15T03:41:14;97026.94;;;-3.30;100.00
52137;BME280;69622;49.570;10.986;2024-01-15T03:44:15;97026.16;;;-3.12;100.00
52137;BME280;69622;49.570;10.986;2024-01-15T03:47:17;97017.63;;;-3.32;100.00
52137;BME280;69622;49.570;10.986;2024-01-15T03:50:18;97022.66;;;-3.10;100.00
52137;BME280;69622;49.570;10.986;2024-01-15T03:53:19;97026.84;;;-3.09;100.00
52137;BME280;69622;49.570;10.986;2024-01-15T03:56:21;97035.56;;;-2.94;100.00
52137;BME280;69622;49.570;10.986;2024-01-15T03:59:22;97019.44;;;-3.13;100.00
52137;BME280;69622;49.570;10.986;2024-01-15T04:02:24;97020.44;;;-2.97;100.00
52137;BME280;69622;49.570;10.986;2024-01-15T04:05:25;97015.72;;;-3.06;100.00
52137;BME280;69622;49.570;10.986;2024-01-15T04:08:27;97019.63;;;-2.97;100.00
52137;BME280;69622;49.570;10.986;2024-01-15T04:11:28;97019.72;;;-3.01;100.00
52137;BME280;69622;49.570;10.986;2024-01-15T04:14:30;97022.50;;;-2.86;100.00
52137;BME280;69622;49.570;10.986;2024-01-15T04:17:31;97022.78;;;-2.92;100.00
52137;BME280;69622;49.570;10.986;2024-01-15T04:20:33;97020.63;;;-2.81;100.00
52137;BME280;69622;49.570;10.986;2024-01-15T04:23:34;97018.00;;;-2.80;100.00
52137;BME280;69622;49.570;10.986;2024-01-15T04:26:35;97010.00;;;-2.91;100.00
52137;BME280;69622;49.570;10.986;2024-01-15T04:29:38;97011.78;;;-2.93;100.00
52137;BME280;69622;49.570;10.986;2024-01-15T04:32:42;97002.44;;;-2.92;100.00
52137;BME280;69622;49.570;10.986;2024-01-15T04:35:43;97008.63;;;-2.98;100.00
52137;BME280;69622;49.570;10.986;2024-01-15T04:38:45;97004.72;;;-2.86;100.00
52137;BME280;69622;49.570;10.986;2024-01-15T04:41:46;97013.25;;;-2.68;100.00
52137;BME280;69622;49.570;10.986;2024-01-15T04:44:48;97005.22;;;-2.78;100.00
52137;BME280;69622;49.570;10.986;2024-01-15T04:47:49;97002.31;;;-2.71;100.00
52137;BME280;69622;49.570;10.986;2024-01-15T04:50:51;96997.78;;;-2.83;100.00
52137;BME280;69622;49.570;10.986;2024-01-15T04:53:52;96998.78;;;-2.87;100.00
52137;BME280;69622;49.570;10.986;2024-01-15T04:56:53;96991.41;;;-2.73;100.00
52137;BME280;69622;49.570;10.986;2024-01-15T04:59:55;96987.34;;;-2.77;100.00
52137;BME280;69622;49.570;10.986;2024-01-15T05:02:56;96978.28;;;-2.63;100.00
52137;BME280;69622;49.570;10.986;2024-01-15T05:05:58;96977.53;;;-2.65;100.00
52137;BME280;69622;49.570;10.986;2024-01-15T05:08:59;96981.78;;;-2.66;100.00
52137;BME280;69622;49.570;10.986;2024-01-15T05:12:01;96978.28;;;-2.63;100.00
52137;BME280;69622;49.570;10.986;2024-01-15T05:15:03;96978.50;;;-2.68;100.00
52137;BME280;69622;49.570;10.986;2024-01-15T05:18:05;96974.78;;;-2.61;100.00
52137;BME280;69622;49.570;10.986;2024-01-15T05:21:07;96981.97;;;-2.71;100.00
52137;BME280;69622;49.570;10.986;2024-01-15T05:24:08;96981.97;;;-2.71;100.00
52137;BME280;69622;49.570;10.986;2024-01-15T05:27:10;96982.69;;;-2.67;100.00
52137;BME280;69622;49.570;10.986;2024-01-15T05:30:12;96977.31;;;-2.61;100.00
52137;BME280;69622;49.570;10.986;2024-01-15T05:33:13;96981.78;;;-2.66;100.00
52137;BME280;69622;49.570;10.986;2024-01-15T05:36:15;96991.22;;;-2.68;100.00
52137;BME280;69622;49.570;10.986;2024-01-15T05:39:16;96977.47;;;-2.64;100.00
52137;BME280;69622;49.570;10.986;2024-01-15T05:42:20;96976.56;;;-2.63;100.00
52137;BME280;69622;49.570;10.986;2024-01-15T05:45:22;96973.59;;;-2.73;100.00
52137;BME280;69622;49.570;10.986;2024-01-15T05:48:23;96971.63;;;-2.66;100.00
52137;BME280;69622;49.570;10.986;2024-01-15T05:51:25;96973.59;;;-2.73;100.00
52137;BME280;69622;49.570;10.986;2024-01-15T05:54:27;96975.53;;;-2.59;100.00
52137;BME280;69622;49.570;10.986;2024-01-15T05:57:28;96972.00;;;-2.56;100.00
52137;BME280;69622;49.570;10.986;2024-01-15T06:00:29;96973.19;;;-2.63;100.00
52137;BME280;69622;49.570;10.986;2024-01-15T06:03:31;96973.34;;;-2.66;100.00
52137;BME280;69622;49.570;10.986;2024-01-15T06:06:33;96971.78;;;-2.71;100.00
52137;BME280;69622;49.570;10.986;2024-01-15T06:09:34;96986.72;;;-2.82;100.00
52137;BME280;69622;49.570;10.986;2024-01-15T06:12:36;96984.13;;;-2.80;100.00
52137;BME280;69622;49.570;10.986;2024-01-15T06:15:37;96984.72;;;-2.75;100.00
52137;BME280;69622;49.570;10.986;2024-01-15T06:18:39;96977.91;;;-2.93;100.00
52137;BME280;69622;49.570;10.986;2024-01-15T06:21:40;96987.94;;;-2.90;100.00
52137;BME280;69622;49.570;10.986;2024-01-15T06:24:42;96980.03;;;-2.84;100.00
52137;BME280;69622;49.570;10.986;2024-01-15T06:27:43;96982.38;;;-2.98;100.00
52137;BME280;69622;49.570;10.986;2024-01-15T06:30:45;96982.56;;;-2.84;100.00
52137;BME280;69622;49.570;10.986;2024-01-15T06:33:47;96979.41;;;-2.89;100.00
52137;BME280;69622;49.570;10.986;2024-01-15T06:36:50;96976.47;;;-2.80;100.00
52137;BME280;69622;49.570;10.986;2024-01-15T06:39:51;96978.75;;;-2.74;100.00
52137;BME280;69622;49.570;10.986;2024-01-15T06:42:53;96976.81;;;-2.69;100.00
52137;BME280;69622;49.570;10.986;2024-01-15T06:45:54;96974.06;;;-2.83;100.00
52137;BME280;69622;49.570;10.986;2024-01-15T06:48:56;96980.19;;;-2.68;100.00
52137;BME280;69622;49.570;10.986;2024-01-15T06:51:57;96973.88;;;-2.79;100.00
52137;BME280;69622;49.570;10.986;2024-01-15T06:54:59;96985.09;;;-2.64;100.00
52137;BME280;69622;49.570;10.986;2024-01-15T06:58:00;96983.59;;;-2.68;100.00
52137;BME280;69622;49.570;10.986;2024-01-15T07:01:02;96990.94;;;-2.62;100.00
52137;BME280;69622;49.570;10.986;2024-01-15T07:04:04;96990.94;;;-2.62;100.00
52137;BME280;69622;49.570;10.986;2024-01-15T07:07:05;96997.75;;;-2.62;100.00
52137;BME280;69622;49.570;10.986;2024-01-15T07:10:07;96987.34;;;-2.58;100.00
52137;BME280;69622;49.570;10.986;2024-01-15T07:13:09;96990.66;;;-2.56;100.00
52137;BME280;69622;49.570;10.986;2024-01-15T07:16:10;96991.97;;;-2.47;100.00
52137;BME280;69622;49.570;10.986;2024-01-15T07:19:11;96994.59;;;-2.49;100.00
52137;BME280;69622;49.570;10.986;2024-01-15T07:22:13;96995.59;;;-2.53;100.00
52137;BME280;69622;49.570;10.986;2024-01-15T07:25:16;96991.38;;;-2.52;100.00
52137;BME280;69622;49.570;10.986;2024-01-15T07:28:18;96993.47;;;-2.43;100.00
52137;BME280;69622;49.570;10.986;2024-01-15T07:31:19;96998.72;;;-2.46;100.00
52137;BME280;69622;49.570;10.986;2024-01-15T07:34:21;96997.28;;;-2.33;100.00
52137;BME280;69622;49.570;10.986;2024-01-15T07:37:23;96998.44;;;-2.40;100.00
52137;BME280;69622;49.570;10.986;2024-01-15T07:40:25;97004.78;;;-2.30;100.00
52137;BME280;69622;49.570;10.986;2024-01-15T07:43:26;97007.31;;;-2.30;100.00
52137;BME280;69622;49.570;10.986;2024-01-15T07:46:29;97003.72;;;-2.26;100.00
52137;BME280;69622;49.570;10.986;2024-01-15T07:49:30;97001.41;;;-2.30;100.00
52137;BME280;69622;49.570;10.986;2024-01-15T07:52:32;97004.91;;;-2.33;100.00
52137;BME280;69622;49.570;10.986;2024-01-15T07:55:33;97021.09;;;-2.34;100.00
52137;BME280;69622;49.570;10.986;2024-01-15T07:58:35;97016.75;;;-2.51;100.00
52137;BME280;69622;49.570;10.986;2024-01-15T08:01:36;97027.19;;;-2.38;100.00
52137;BME280;69622;49.570;10.986;2024-01-15T08:04:38;97018.75;;;-2.20;100.00
52137;BME280;69622;49.570;10.986;2024-01-15T08:07:42;97025.41;;;-2.17;100.00
52137;BME280;69622;49.570;10.986;2024-01-15T08:10:43;97020.59;;;-2.23;100.00
52137;BME280;69622;49.570;10.986;2024-01-15T08:13:45;97018.78;;;-2.40;100.00
52137;BME280;69622;49.570;10.986;2024-01-15T08:16:46;97019.06;;;-2.27;100.00
52137;BME280;69622;49.570;10.986;2024-01-15T08:19:48;97009.94;;;-2.31;100.00
52137;BME280;69622;49.570;10.986;2024-01-15T08:22:49;97019.44;;;-2.35;100.00
52137;BME280;69622;49.570;10.986;2024-01-15T08:25:51;97006.41;;;-2.29;100.00
52137;BME280;69622;49.570;10.986;2024-01-15T08:28:52;97004.91;;;-2.33;100.00
52137;BME280;69622;49.570;10.986;2024-01-15T08:31:54;97011.28;;;-2.24;100.00
52137;BME280;69622;49.570;10.986;2024-01-15T08:34:55;96999.81;;;-2.14;100.00
52137;BME280;69622;49.570;10.986;2024-01-15T08:37:57;97003.72;;;-2.07;100.00
52137;BME280;69622;49.570;10.986;2024-01-15T08:40:59;97002.69;;;-2.03;100.00
52137;BME280;69622;49.570;10.986;2024-01-15T08:44:01;97000.63;;;-2.14;100.00
52137;BME280;69622;49.570;10.986;2024-01-15T08:47:04;97000.56;;;-2.12;100.00
52137;BME280;69622;49.570;10.986;2024-01-15T08:50:06;96992.69;;;-2.07;100.00
52137;BME280;69622;49.570;10.986;2024-01-15T08:53:11;97002.06;;;-2.08;100.00
52137;BME280;69622;49.570;10.986;2024-01-15T08:56:12;97000.38;;;-1.90;100.00
52137;BME280;69622;49.570;10.986;2024-01-15T08:59:14;96998.72;;;-1.91;100.00
52137;BME280;69622;49.570;10.986;2024-01-15T09:02:15;96998.53;;;-1.87;100.00
52137;BME280;69622;49.570;10.986;2024-01-15T09:05:17;97002.53;;;-2.00;100.00
52137;BME280;69622;49.570;10.986;2024-01-15T09:08:18;96998.28;;;-1.99;100.00
52137;BME280;69622;49.570;10.986;2024-01-15T09:11:20;96999.56;;;-1.91;100.00
52137;BME280;69622;49.570;10.986;2024-01-15T09:14:21;96996.84;;;-2.05;100.00
52137;BME280;69622;49.570;10.986;2024-01-15T09:17:37;96996.78;;;-2.03;100.00
52137;BME280;69622;49.570;10.986;2024-01-15T09:20:39;97007.72;;;-2.01;100.00
52137;BME280;69622;49.570;10.986;2024-01-15T09:23:40;97004.22;;;-1.82;100.00
52137;BME280;69622;49.570;10.986;2024-01-15T09:26:42;97006.38;;;-1.72;100.00
52137;BME280;69622;49.570;10.986;2024-01-15T09:29:43;97004.19;;;-1.63;100.00
52137;BME280;69622;49.570;10.986;2024-01-15T09:32:46;96996.94;;;-1.53;100.00
52137;BME280;69622;49.570;10.986;2024-01-15T09:35:48;96996.19;;;-1.55;100.00
52137;BME280;69622;49.570;10.986;2024-01-15T09:38:49;97000.88;;;-1.65;100.00
52137;BME280;69622;49.570;10.986;2024-01-15T09:41:51;97010.03;;;-1.61;100.00
52137;BME280;69622;49.570;10.986;2024-01-15T09:44:54;97010.50;;;-1.53;100.00
52137;BME280;69622;49.570;10.986;2024-01-15T09:47:56;97021.44;;;-1.68;100.00
52137;BME280;69622;49.570;10.986;2024-01-15T09:50:58;97016.19;;;-1.65;100.00
52137;BME280;69622;49.570;10.986;2024-01-15T09:54:00;97022.56;;;-1.73;100.00
52137;BME280;69622;49.570;10.986;2024-01-15T09:57:02;97017.69;;;-1.61;100.00
52137;BME280;69622;49.570;10.986;2024-01-15T10:00:05;97017.69;;;-1.61;100.00
52137;BME280;69622;49.570;10.986;2024-01-15T10:03:08;97001.94;;;-1.69;100.00
52137;BME280;69622;49.570;10.986;2024-01-15T10:06:15;97014.94;;;-1.56;100.00
52137;BME280;69622;49.570;10.986;2024-01-15T10:09:22;97011.03;;;-1.46;100.00
52137;BME280;69622;49.570;10.986;2024-01-15T10:12:24;97017.47;;;-1.56;100.00
52137;BME280;69622;49.570;10.986;2024-01-15T10:15:28;97001.47;;;-1.60;100.00
52137;BME280;69622;49.570;10.986;2024-01-15T10:18:30;97010.25;;;-1.65;100.00
52137;BME280;69622;49.570;10.986;2024-01-15T10:21:32;97011.69;;;-1.60;100.00
52137;BME280;69622;49.570;10.986;2024-01-15T10:24:37;96998.91;;;-1.41;100.00
52137;BME280;69622;49.570;10.986;2024-01-15T10:27:43;96996.38;;;-1.42;100.00
52137;BME280;69622;49.570;10.986;2024-01-15T10:30:45;96989.72;;;-1.28;100.00
52137;BME280;69622;49.570;10.986;2024-01-15T10:33:46;96968.22;;;-1.39;100.00
52137;BME280;69622;49.570;10.986;2024-01-15T10:36:49;96963.63;;;-1.33;100.00
52137;BME280;69622;49.570;10.986;2024-01-15T10:39:56;96955.31;;;-1.36;100.00
52137;BME280;69622;49.570;10.986;2024-01-15T10:42:58;96961.97;;;-1.34;100.00
52137;BME280;69622;49.570;10.986;2024-01-15T10:45:59;96968.22;;;-1.39;100.00
52137;BME280;69622;49.570;10.986;2024-01-15T10:49:01;96946.75;;;-1.18;100.00
52137;BME280;69622;49.570;10.986;2024-01-15T10:52:03;96949.97;;;-1.14;100.00
52137;BME280;69622;49.570;10.986;2024-01-15T10:55:07;96952.34;;;-1.11;100.00
52137;BME280;69622;49.570;10.986;2024-01-15T10:58:18;96949.44;;;-1.21;100.00
52137;BME280;69622;49.570;10.986;2024-01-15T11:01:19;96947.78;;;-1.05;100.00
52137;BME280;69622;49.570;10.986;2024-01-15T11:04:22;96936.16;;;-1.10;100.00
52137;BME280;69622;49.570;10.986;2024-01-15T11:07:30;96932.50;;;-1.22;100.00
52137;BME280;69622;49.570;10.986;2024-01-15T11:10:42;96926.09;;;-1.13;100.00
52137;BME280;69622;49.570;10.986;2024-01-15T11:13:46;96923.78;;;-1.18;100.00
52137;BME280;69622;49.570;10.986;2024-01-15T11:16:55;96925.06;;;-1.27;100.00
52137;BME280;69622;49.570;10.986;2024-01-15T11:19:58;96927.56;;;-1.25;100.00
52137;BME280;69622;49.570;10.986;2024-01-15T11:22:59;96926.31;;;-1.01;100.00
52137;BME280;69622;49.570;10.986;2024-01-15T11:26:01;96928.69;;;-1.31;100.00
52137;BME280;69622;49.570;10.986;2024-01-15T11:29:04;96918.41;;;-0.96;100.00
52137;BME280;69622;49.570;10.986;2024-01-15T11:32:10;96922.06;;;-0.84;100.00
52137;BME280;69622;49.570;10.986;2024-01-15T11:35:12;96919.19;;;-0.94;100.00
52137;BME280;69622;49.570;10.986;2024-01-15T11:38:26;96926.78;;;-1.10;100.00
52137;BME280;69622;49.570;10.986;2024-01-15T11:41:29;96917.19;;;-1.22;100.00
52137;BME280;69622;49.570;10.986;2024-01-15T11:44:31;96925.50;;;-1.18;100.00
52137;BME280;69622;49.570;10.986;2024-01-15T11:50:53;96916.81;;;-1.14;100.00
52137;BME280;69622;49.570;10.986;2024-01-15T11:53:58;96914.91;;;-1.11;100.00
52137;BME280;69622;49.570;10.986;2024-01-15T11:57:10;96925.28;;;-1.14;100.00
52137;BME280;69622;49.570;10.986;2024-01-15T12:00:17;96911.31;;;-1.07;100.00
52137;BME280;69622;49.570;10.986;2024-01-15T12:03:22;96917.25;;;-1.06;100.00
52137;BME280;69622;49.570;10.986;2024-01-15T12:06:24;96908.06;;;-0.93;100.00
52137;BME280;69622;49.570;10.986;2024-01-15T12:09:25;96903.78;;;-0.93;100.00
52137;BME280;69622;49.570;10.986;2024-01-15T12:12:39;96900.03;;;-1.03;100.00
52137;BME280;69622;49.570;10.986;2024-01-15T12:15:47;96906.69;;;-1.16;100.00
52137;BME280;69622;49.570;10.986;2024-01-15T12:18:50;96885.00;;;-1.07;100.00
52137;BME280;69622;49.570;10.986;2024-01-15T12:21:52;96882.94;;;-1.01;100.00
52137;BME280;69622;49.570;10.986;2024-01-15T12:24:53;96902.69;;;-1.04;100.00
52137;BME280;69622;49.570;10.986;2024-01-15T12:27:56;96892.59;;;-0.90;100.00
52137;BME280;69622;49.570;10.986;2024-01-15T12:30:57;96897.59;;;-0.88;100.00
52137;BME280;69622;49.570;10.986;2024-01-15T12:34:01;96888.47;;;-0.93;100.00
52137;BME280;69622;49.570;10.986;2024-01-15T12:37:03;96900.66;;;-0.82;100.00
52137;BME280;69622;49.570;10.986;2024-01-15T12:40:06;96892.41;;;-0.87;100.00
52137;BME280;69622;49.570;10.986;2024-01-15T12:43:08;96897.59;;;-1.04;100.00
52137;BME280;69622;49.570;10.986;2024-01-15T12:46:09;96888.78;;;-0.99;100.00
52137;BME280;69622;49.570;10.986;2024-01-15T12:49:13;96883.50;;;-0.96;100.00
52137;BME280;69622;49.570;10.986;2024-01-15T12:52:14;96879.56;;;-0.85;100.00
52137;BME280;69622;49.570;10.986;2024-01-15T12:55:15;96881.13;;;-0.83;100.00
52137;BME280;69622;49.570;10.986;2024-01-15T12:58:18;96871.66;;;-0.81;100.00
52137;BME280;69622;49.570;10.986;2024-01-15T13:01:21;96883.38;;;-0.77;100.00
52137;BME280;69622;49.570;10.986;2024-01-15T13:04:24;96885.09;;;-0.93;100.00
52137;BME280;69622;49.570;10.986;2024-01-15T13:07:27;96894.16;;;-0.87;100.00
52137;BME280;69622;49.570;10.986;2024-01-15T13:10:29;96898.84;;;-0.80;100.00
52137;BME280;69622;49.570;10.986;2024-01-15T13:13:31;96900.81;;;-0.85;100.00
52137;BME280;69622;49.570;10.986;2024-01-15T13:16:35;96902.63;;;-0.87;100.00
52137;BME280;69622;49.570;10.986;2024-01-15T13:19:37;96902.63;;;-0.87;100.00
52137;BME280;69622;49.570;10.986;2024-01-15T13:22:39;96907.97;;;-0.92;100.00
52137;BME280;69622;49.570;10.986;2024-01-15T13:25:42;96901.13;;;-1.07;100.00
52137;BME280;69622;49.570;10.986;2024-01-15T13:28:44;96899.97;;;-1.01;100.00
52137;BME280;69622;49.570;10.986;2024-01-15T13:31:45;96896.25;;;-0.96;100.00
52137;BME280;69622;49.570;10.986;2024-01-15T13:34:47;96896.25;;;-0.96;100.00
52137;BME280;69622;49.570;10.986;2024-01-15T13:37:49;96894.28;;;-1.06;100.00
52137;BME280;69622;49.570;10.986;2024-01-15T13:40:50;96899.47;;;-1.08;100.00
52137;BME280;69622;49.570;10.986;2024-01-15T13:43:53;96900.28;;;-1.07;100.00
52137;BME280;69622;49.570;10.986;2024-01-15T13:46:55;96907.44;;;-0.98;100.00
52137;BME280;69622;49.570;10.986;2024-01-15T13:49:58;96903.31;;;-1.16;100.00
52137;BME280;69622;49.570;10.986;2024-01-15T13:53:00;96898.13;;;-1.15;100.00
52137;BME280;69622;49.570;10.986;2024-01-15T13:56:01;96899.56;;;-1.27;100.00
52137;BME280;69622;49.570;10.986;2024-01-15T13:59:03;96901.50;;;-1.14;100.00
52137;BME280;69622;49.570;10.986;2024-01-15T14:02:06;96900.84;;;-1.18;100.00
52137;BME280;69622;49.570;10.986;2024-01-15T14:05:08;96893.19;;;-1.18;100.00
52137;BME280;69622;49.570;10.986;2024-01-15T14:08:10;96896.44;;;-1.32;100.00
52137;BME280;69622;49.570;10.986;2024-01-15T14:11:11;96893.72;;;-1.29;100.00
52137;BME280;69622;49.570;10.986;2024-01-15T14:14:14;96886.16;;;-1.30;100.00
52137;BME280;69622;49.570;10.986;2024-01-15T14:17:15;96890.22;;;-1.26;100.00
52137;BME280;69622;49.570;10.986;2024-01-15T14:20:17;96901.56;;;-1.16;100.00
52137;BME280;69622;49.570;10.986;2024-01-15T14:23:22;96904.88;;;-1.14;100.00
52137;BME280;69622;49.570;10.986;2024-01-15T14:26:24;96909.09;;;-0.97;100.00
52137;BME280;69622;49.570;10.986;2024-01-15T14:29:25;96906.78;;;-1.02;100.00
52137;BME280;69622;49.570;10.986;2024-01-15T14:32:28;96909.19;;;-0.99;100.00
52137;BME280;69622;49.570;10.986;2024-01-15T14:35:29;96915.34;;;-1.03;100.00
52137;BME280;69622;49.570;10.986;2024-01-15T14:38:31;96913.53;;;-1.01;100.00
52137;BME280;69622;49.570;10.986;2024-01-15T14:41:32;96918.16;;;-1.07;100.00
52137;BME280;69622;49.570;10.986;2024-01-15T14:44:34;96918.81;;;-1.04;100.00
52137;BME280;69622;49.570;10.986;2024-01-15T14:47:36;96910.41;;;-1.06;100.00
52137;BME280;69622;49.570;10.986;2024-01-15T14:50:37;96918.59;;;-1.16;100.00
52137;BME280;69622;49.570;10.986;2024-01-15T14:53:39;96914.56;;;-1.21;100.00
52137;BME280;69622;49.570;10.986;2024-01-15T14:56:40;96921.81;;;-1.13;100.00
52137;BME280;69622;49.570;10.986;2024-01-15T14:59:41;96915.69;;;-1.09;100.00
52137;BME280;69622;49.570;10.986;2024-01-15T15:02:43;96913.13;;;-1.09;100.00
52137;BME280;69622;49.570;10.986;2024-01-15T15:05:45;96908.84;;;-1.08;100.00
52137;BME280;69622;49.570;10.986;2024-01-15T15:08:46;96907.78;;;-1.04;100.00
52137;BME280;69622;49.570;10.986;2024-01-15T15:11:48;96912.59;;;-1.15;100.00
52137;BME280;69622;49.570;10.986;2024-01-15T15:14:49;96913.59;;;-1.18;100.00
52137;BME280;69622;49.570;10.986;2024-01-15T15:18:04;96925.50;;;-1.18;100.00
52137;BME280;69622;49.570;10.986;2024-01-15T15:21:06;96928.69;;;-1.31;100.00
52137;BME280;69622;49.570;10.986;2024-01-15T15:24:09;96938.72;;;-1.28;100.00
52137;BME280;69622;49.570;10.986;2024-01-15T15:27:10;96943.91;;;-1.29;100.00
52137;BME280;69622;49.570;10.986;2024-01-15T15:30:12;96950.13;;;-1.35;100.00
52137;BME280;69622;49.570;10.986;2024-01-15T15:33:14;96966.09;;;-1.31;100.00
52137;BME280;69622;49.570;10.986;2024-01-15T15:36:17;96977.72;;;-1.43;100.00
52137;BME280;69622;49.570;10.986;2024-01-15T15:39:20;96974.59;;;-1.48;100.00
52137;BME280;69622;49.570;10.986;2024-01-15T15:42:22;96977.59;;;-1.40;100.00
52137;BME280;69622;49.570;10.986;2024-01-15T15:45:25;96984.03;;;-1.50;100.00